Time;durP1;ratioP1;P1;durP2;ratioP2;P2;SDS_P1;SDS_P2;PMS_P1;PMS_P2;Temp;Humidity;BMP_temperature;BMP_pressure;BME280_temperature;BME280_humidity;BME280_pressure;Samples;Min_cycle;Max_cycle;Signal;HPM_P1;HPM_P2
2022/07/15 00:00:27;;;;;;;88.30;83.70;;;;;;;16.47;100.00;100950.06;6011909;23;20026;-79
2022/07/15 00:02:57;;;;;;;96.10;91.70;;;;;;;16.98;100.00;100949.41;6012581;23;20024;-80
2022/07/15 00:05:26;;;;;;;85.97;81.43;;;;;;;17.01;100.00;100940.88;6011343;23;20024;-80
2022/07/15 00:08:00;;;;;;;90.40;85.07;;;;;;;16.89;100.00;100949.00;6012384;23;20019;-79
2022/07/15 00:10:32;;;;;;;40.28;38.13;;;;;;;17.16;100.00;100949.16;6013265;23;20023;-80
2022/07/15 00:13:08;;;;;;;38.28;36.30;;;;;;;16.90;100.00;100943.38;6011075;23;20472;-80
2022/07/15 00:15:40;;;;;;;36.40;34.20;;;;;;;17.06;100.00;100947.09;6010760;23;20538;-79
2022/07/15 00:18:07;;;;;;;43.45;41.25;;;;;;;16.90;100.00;100948.72;6011812;23;20031;-79
2022/07/15 00:20:34;;;;;;;35.95;33.95;;;;;;;16.92;100.00;100943.13;6011889;23;20035;-81
2022/07/15 00:23:03;;;;;;;39.55;37.75;;;;;;;16.74;100.00;100944.13;6011240;23;20032;-79
2022/07/15 00:25:38;;;;;;;61.45;58.33;;;;;;;16.61;100.00;100944.41;6013566;23;20024;-80
2022/07/15 00:28:13;;;;;;;68.03;64.72;;;;;;;16.79;100.00;100941.56;6013397;23;20509;-80
2022/07/15 00:30:45;;;;;;;77.93;74.20;;;;;;;16.94;100.00;100949.88;6012516;23;20034;-79
2022/07/15 00:33:13;;;;;;;66.72;63.42;;;;;;;16.52;100.00;100944.00;6015683;23;20023;-80
2022/07/15 00:35:45;;;;;;;67.10;63.90;;;;;;;17.02;100.00;100943.28;6013510;23;20026;-80
2022/07/15 00:38:17;;;;;;;82.25;78.25;;;;;;;17.04;100.00;100943.88;6013083;23;20083;-80
2022/07/15 00:40:48;;;;;;;79.03;75.33;;;;;;;16.46;100.00;100935.06;6015656;23;20023;-80
2022/07/15 00:43:19;;;;;;;71.35;67.80;;;;;;;16.67;100.00;100935.41;6012960;23;20457;-80
2022/07/15 00:45:54;;;;;;;78.18;74.28;;;;;;;16.57;100.00;100937.91;6011419;23;20020;-78
2022/07/15 00:48:31;;;;;;;79.35;75.53;;;;;;;16.42;100.00;100936.56;6011666;23;20059;-79
2022/07/15 00:50:58;;;;;;;83.47;79.10;;;;;;;16.72;100.00;100940.88;6012462;23;20028;-79
2022/07/15 00:53:29;;;;;;;51.10;48.60;;;;;;;16.70;100.00;100934.91;6011565;23;20024;-81
2022/07/15 00:56:00;;;;;;;32.33;30.58;;;;;;;16.53;100.00;100936.78;6012645;23;20099;-80
2022/07/15 00:58:34;;;;;;;29.88;28.27;;;;;;;15.97;100.00;100936.47;6014659;23;20028;-79
2022/07/15 01:01:05;;;;;;;30.52;28.83;;;;;;;16.40;100.00;100935.16;6011510;23;20024;-80
2022/07/15 01:03:33;;;;;;;32.00;30.23;;;;;;;15.95;100.00;100941.28;6013802;23;20023;-80
2022/07/15 01:06:00;;;;;;;26.33;24.73;;;;;;;16.23;100.00;100940.50;6012837;23;20019;-80
2022/07/15 01:08:35;;;;;;;26.58;25.05;;;;;;;16.18;100.00;100930.47;6012076;23;20087;-80
2022/07/15 01:11:08;;;;;;;29.70;28.10;;;;;;;16.15;100.00;100928.28;6012918;23;20107;-80
2022/07/15 01:13:37;;;;;;;29.98;28.38;;;;;;;16.45;100.00;100927.25;6013345;23;20092;-79
2022/07/15 01:16:05;;;;;;;37.85;35.47;;;;;;;16.14;100.00;100923.97;6013015;23;20126;-78
2022/07/15 01:18:32;;;;;;;34.50;32.90;;;;;;;16.19;100.00;100924.09;6012103;23;20087;-79
2022/07/15 01:21:10;;;;;;;33.45;31.45;;;;;;;15.77;100.00;100926.97;6013396;23;20039;-80
2022/07/15 01:23:42;;;;;;;31.58;29.98;;;;;;;16.26;100.00;100922.06;6012761;23;20038;-78
2022/07/15 01:26:09;;;;;;;33.60;31.85;;;;;;;15.98;100.00;100922.03;6011187;23;20028;-79
2022/07/15 01:28:45;;;;;;;31.65;30.05;;;;;;;16.10;100.00;100919.34;6013697;23;20024;-83
2022/07/15 01:31:18;;;;;;;30.23;28.75;;;;;;;16.05;100.00;100914.69;6013038;23;20024;-78
2022/07/15 01:33:47;;;;;;;37.35;35.45;;;;;;;15.74;100.00;100921.28;6013237;23;20067;-79
2022/07/15 01:36:17;;;;;;;36.50;34.80;;;;;;;15.92;100.00;100931.03;6011938;23;20035;-79
2022/07/15 01:38:44;;;;;;;33.28;31.48;;;;;;;15.78;100.00;100920.56;6011993;23;20067;-79
2022/07/15 01:41:11;;;;;;;31.95;30.25;;;;;;;15.92;100.00;100931.03;6011280;23;20023;-79
2022/07/15 01:43:39;;;;;;;30.48;28.77;;;;;;;16.06;100.00;100932.38;6013783;23;20023;-79
2022/07/15 01:46:06;;;;;;;33.08;31.27;;;;;;;15.82;100.00;100930.78;6011520;23;20016;-79
2022/07/15 01:51:27;;;;;;;31.40;29.45;;;;;;;15.48;100.00;100922.53;6010960;23;20063;-79
2022/07/15 01:53:54;;;;;;;31.48;29.45;;;;;;;15.66;100.00;100922.41;6011447;23;20027;-79
2022/07/15 01:56:25;;;;;;;31.05;29.15;;;;;;;15.38;100.00;100931.16;6012074;23;20035;-79
2022/07/15 01:58:58;;;;;;;32.25;30.35;;;;;;;14.96;100.00;100925.06;6011460;23;20411;-81
2022/07/15 02:01:25;;;;;;;31.75;29.98;;;;;;;15.00;100.00;100927.03;6005446;23;20036;-79
2022/07/15 02:03:52;;;;;;;33.38;31.48;;;;;;;15.44;100.00;100932.91;6040109;23;20042;-80
2022/07/15 02:06:19;;;;;;;38.40;36.40;;;;;;;15.58;100.00;100920.06;6039825;23;20031;-79
2022/07/15 02:08:47;;;;;;;35.85;34.05;;;;;;;14.98;100.00;100920.28;6040640;23;20034;-79
2022/07/15 02:11:14;;;;;;;40.97;38.78;;;;;;;15.48;100.00;100922.53;6039691;23;20035;-79
2022/07/15 02:13:41;;;;;;;34.58;32.45;;;;;;;15.48;100.00;100919.84;6040128;23;20031;-80
2022/07/15 02:16:08;;;;;;;41.55;39.40;;;;;;;15.47;100.00;100924.41;6040779;23;20332;-84
2022/07/15 02:18:35;;;;;;;33.47;31.60;;;;;;;15.38;100.00;100920.44;6040119;23;20038;-80
2022/07/15 02:21:02;;;;;;;73.82;70.00;;;;;;;15.03;100.00;100923.88;6039159;23;20483;-80
2022/07/15 02:23:29;;;;;;;75.05;70.80;;;;;;;15.09;100.00;100928.31;6040786;23;20039;-81
2022/07/15 02:25:58;;;;;;;64.55;60.75;;;;;;;15.51;100.00;100925.53;6040260;23;20027;-80
2022/07/15 02:28:25;;;;;;;75.90;71.75;;;;;;;15.20;100.00;100920.56;6039372;23;20023;-80
2022/07/15 02:30:52;;;;;;;83.53;79.07;;;;;;;15.41;100.00;100922.66;6039704;23;20027;-79
2022/07/15 02:33:19;;;;;;;68.97;65.28;;;;;;;14.76;100.00;100928.00;6040526;23;20094;-79
2022/07/15 02:35:45;;;;;;;57.20;53.83;;;;;;;14.77;100.00;100918.97;6039451;23;20115;-79
2022/07/15 02:38:12;;;;;;;60.17;56.65;;;;;;;15.41;100.00;100922.66;6039445;23;20326;-81
2022/07/15 02:40:40;;;;;;;67.55;64.05;;;;;;;15.30;100.00;100923.47;6040019;23;20023;-80
2022/07/15 02:43:08;;;;;;;40.05;37.85;;;;;;;15.40;100.00;100921.03;6039756;23;20023;-81
2022/07/15 02:45:36;;;;;;;48.88;46.33;;;;;;;15.15;100.00;100923.09;6039393;23;20024;-82
2022/07/15 02:48:03;;;;;;;43.40;41.20;;;;;;;14.72;100.00;100924.19;6039755;23;20430;-80
2022/07/15 02:50:31;;;;;;;43.47;41.28;;;;;;;15.34;100.00;100921.97;6039792;23;20031;-79
2022/07/15 02:52:57;;;;;;;29.52;27.98;;;;;;;15.22;100.00;100918.44;6039812;23;20031;-79
2022/07/15 02:55:24;;;;;;;30.23;28.52;;;;;;;15.22;100.00;100921.94;6039170;23;20345;-80
2022/07/15 02:57:51;;;;;;;27.63;25.85;;;;;;;15.38;100.00;100908.94;6039609;23;20508;-80
2022/07/15 03:00:21;;;;;;;28.95;27.05;;;;;;;15.73;100.00;100912.44;6039973;23;20027;-80
2022/07/15 03:02:48;;;;;;;30.38;28.55;;;;;;;15.47;100.00;100912.88;6039098;23;20038;-81
2022/07/15 03:05:17;;;;;;;30.85;27.70;;;;;;;16.05;100.00;100917.34;6039476;23;20358;-80
2022/07/15 03:07:44;;;;;;;28.80;27.00;;;;;;;15.84;100.00;100921.47;6039736;23;20023;-80
2022/07/15 03:10:12;;;;;;;29.83;27.80;;;;;;;16.09;100.00;100910.47;6039833;23;20027;-80
2022/07/15 03:12:39;;;;;;;29.27;27.58;;;;;;;16.15;100.00;100912.19;6039966;23;20023;-80
2022/07/15 03:15:08;;;;;;;27.88;26.23;;;;;;;16.00;100.00;100918.06;6040939;23;20082;-81
2022/07/15 03:17:36;;;;;;;39.85;37.75;;;;;;;16.18;100.00;100914.41;6040335;23;20024;-80
2022/07/15 03:20:04;;;;;;;49.88;47.50;;;;;;;16.31;100.00;100913.31;6040277;23;20102;-80
2022/07/15 03:22:30;;;;;;;34.15;32.25;;;;;;;16.09;100.00;100915.00;6039970;23;20098;-81
2022/07/15 03:24:57;;;;;;;31.13;29.33;;;;;;;16.41;100.00;100910.81;6040035;23;20033;-80
2022/07/15 03:27:24;;;;;;;31.23;29.52;;;;;;;16.57;100.00;100916.47;6040008;23;20027;-81
2022/07/15 03:29:51;;;;;;;30.10;28.30;;;;;;;16.55;100.00;100918.56;6039264;23;20019;-80
2022/07/15 03:32:20;;;;;;;31.02;29.13;;;;;;;16.60;100.00;100921.34;6039717;23;20037;-80
2022/07/15 03:34:49;;;;;;;33.50;31.63;;;;;;;16.87;100.00;100917.03;6039914;23;20038;-80
2022/07/15 03:37:16;;;;;;;29.88;28.08;;;;;;;16.93;100.00;100913.38;6040132;23;20098;-81
2022/07/15 03:39:43;;;;;;;33.10;31.38;;;;;;;17.03;100.00;100918.09;6040053;23;20034;-81
2022/07/15 03:42:10;;;;;;;28.75;27.05;;;;;;;17.14;100.00;100922.56;6039622;23;20090;-80
2022/07/15 03:44:37;;;;;;;29.23;27.52;;;;;;;17.18;100.00;100917.50;6039283;23;20786;-79
2022/07/15 03:47:04;;;;;;;28.42;26.35;;;;;;;17.17;100.00;100918.59;6039637;23;20357;-80
2022/07/15 03:49:30;;;;;;;26.70;24.90;;;;;;;17.34;100.00;100923.94;6039197;23;20023;-80
2022/07/15 03:51:59;;;;;;;27.88;26.08;;;;;;;17.33;100.00;100914.25;6039480;23;20026;-80
2022/07/15 03:54:26;;;;;;;47.65;45.25;;;;;;;17.38;100.00;100915.16;6040235;23;20023;-80
2022/07/15 03:56:54;;;;;;;48.78;46.30;;;;;;;17.53;100.00;100914.56;6039388;23;20027;-79
2022/07/15 03:59:22;;;;;;;54.95;52.00;;;;;;;17.64;100.00;100915.53;6039354;23;20028;-79
2022/07/15 04:01:49;;;;;;;73.82;68.18;;;;;;;17.68;100.00;100903.22;6039215;23;20321;-80
2022/07/15 04:04:17;;;;;;;44.88;42.47;;;;;;;17.66;100.00;100909.88;6039574;23;20083;-79
2022/07/15 04:06:44;;;;;;;28.13;26.17;;;;;;;17.82;100.00;100904.50;6039492;23;20091;-81
2022/07/15 04:09:12;;;;;;;25.42;23.83;;;;;;;17.97;100.00;100897.69;6039990;23;20090;-84
2022/07/15 04:11:41;;;;;;;26.80;24.90;;;;;;;18.10;100.00;100896.50;6039894;23;20023;-80
2022/07/15 04:14:11;;;;;;;27.20;25.52;;;;;;;18.15;100.00;100894.66;6038954;23;20031;-79
2022/07/15 04:16:38;;;;;;;25.85;24.23;;;;;;;18.15;100.00;100896.53;6039077;23;20114;-79
2022/07/15 04:19:05;;;;;;;27.40;25.80;;;;;;;18.16;100.00;100896.31;6039497;23;20019;-79
2022/07/15 04:21:32;;;;;;;28.55;26.85;;;;;;;18.35;100.00;100906.72;6038708;23;20031;-79
2022/07/15 04:24:00;;;;;;;26.60;25.20;;;;;;;18.45;100.00;100904.13;6039366;23;20049;-81
2022/07/15 04:26:28;;;;;;;27.95;26.25;;;;;;;18.56;100.00;100900.47;6039504;23;20023;-79
2022/07/15 04:28:55;;;;;;;31.13;29.42;;;;;;;18.59;100.00;100905.34;6039091;23;20023;-79
2022/07/15 04:31:22;;;;;;;29.25;27.65;;;;;;;18.70;100.00;100903.59;6039373;23;20102;-79
2022/07/15 04:33:49;;;;;;;27.73;26.25;;;;;;;18.83;100.00;100905.06;6038246;23;20461;-80
2022/07/15 04:36:16;;;;;;;24.85;23.45;;;;;;;18.92;100.00;100909.72;6038339;23;20038;-80
2022/07/15 04:38:43;;;;;;;32.85;31.13;;;;;;;18.97;100.00;100903.53;6039762;23;20027;-82
2022/07/15 04:41:10;;;;;;;32.03;29.80;;;;;;;19.15;100.00;100903.16;6039317;23;20094;-80
2022/07/15 04:43:39;;;;;;;33.78;31.85;;;;;;;19.51;100.00;100903.38;6039533;23;20380;-79
2022/07/15 04:46:06;;;;;;;30.90;28.92;;;;;;;19.37;100.00;100896.84;6039215;23;20034;-79
2022/07/15 04:51:17;;;;;;;29.63;28.02;;;;;;;19.73;100.00;100902.44;6039207;23;20103;-80
2022/07/15 04:53:44;;;;;;;31.27;29.60;;;;;;;19.77;100.00;100906.25;6039280;23;20024;-80
2022/07/15 04:56:11;;;;;;;31.08;29.33;;;;;;;19.95;100.00;100897.69;6039622;23;20094;-80
2022/07/15 04:58:39;;;;;;;33.20;31.20;;;;;;;19.93;100.00;100905.22;6038916;23;20034;-80
2022/07/15 05:01:06;;;;;;;32.25;30.35;;;;;;;20.22;100.00;100900.22;6038609;23;20030;-79
2022/07/15 05:03:33;;;;;;;31.27;29.40;;;;;;;20.34;100.00;100897.28;6039218;23;20024;-80
2022/07/15 05:06:00;;;;;;;31.85;29.83;;;;;;;20.42;100.00;100896.72;6039269;23;20027;-79
2022/07/15 05:08:26;;;;;;;30.40;28.17;;;;;;;20.77;100.00;100898.69;6038739;23;20460;-80
2022/07/15 05:10:53;;;;;;;30.00;28.10;;;;;;;20.88;100.00;100893.28;6038772;23;20019;-79
2022/07/15 05:13:20;;;;;;;30.25;28.00;;;;;;;20.78;100.00;100891.41;6039442;23;20023;-80
2022/07/15 05:15:48;;;;;;;28.38;26.67;;;;;;;21.14;100.00;100884.09;6039337;23;20028;-80
2022/07/15 05:18:15;;;;;;;27.27;25.45;;;;;;;21.23;100.00;100887.06;6038721;23;20027;-84
2022/07/15 05:20:42;;;;;;;28.40;26.45;;;;;;;21.39;100.00;100895.97;6038684;23;20337;-80
2022/07/15 05:23:09;;;;;;;27.02;25.13;;;;;;;21.40;100.00;100897.59;6038883;23;20042;-79
2022/07/15 05:25:36;;;;;;;25.70;24.02;;;;;;;21.56;100.00;100904.56;6038965;23;20043;-80
2022/07/15 05:28:03;;;;;;;27.05;25.13;;;;;;;21.74;100.00;100903.16;6040169;23;20027;-79
2022/07/15 05:30:30;;;;;;;28.00;26.08;;;;;;;22.11;100.00;100891.09;6040757;23;20020;-78
2022/07/15 05:32:58;;;;;;;29.83;27.83;;;;;;;22.00;100.00;100897.66;6040373;23;20023;-80
2022/07/15 05:35:25;;;;;;;28.67;27.08;;;;;;;22.12;100.00;100895.44;6041261;23;20082;-79
2022/07/15 05:37:52;;;;;;;26.58;25.05;;;;;;;22.48;100.00;100893.38;6040738;23;20024;-78
2022/07/15 05:40:19;;;;;;;29.25;27.20;;;;;;;22.69;100.00;100885.06;6041006;23;20027;-80
2022/07/15 05:42:46;;;;;;;27.67;25.88;;;;;;;22.70;100.00;100884.81;6040968;23;20354;-79
2022/07/15 05:45:13;;;;;;;29.98;27.88;;;;;;;22.91;100.00;100885.44;6041209;23;20337;-79
2022/07/15 05:47:40;;;;;;;32.05;30.05;;;;;;;23.16;100.00;100876.31;6040851;23;20023;-80
2022/07/15 05:50:09;;;;;;;29.27;27.38;;;;;;;23.24;100.00;100880.28;6040721;23;20020;-79
2022/07/15 05:52:36;;;;;;;37.05;35.15;;;;;;;23.18;100.00;100876.00;6039978;23;20448;-80
2022/07/15 05:55:04;;;;;;;37.78;35.40;;;;;;;23.40;100.00;100887.16;6040961;23;20448;-81
2022/07/15 05:57:33;;;;;;;39.30;37.03;;;;;;;23.62;100.00;100881.22;6041312;23;20030;-79
2022/07/15 05:59:59;;;;;;;41.47;38.38;;;;;;;24.10;100.00;100878.47;6040596;23;20448;-80
2022/07/15 06:02:26;;;;;;;37.50;34.83;;;;;;;24.41;100.00;100872.59;6040239;23;20027;-80
2022/07/15 06:04:53;;;;;;;36.17;33.88;;;;;;;24.64;100.00;100882.56;6040135;23;20035;-80
2022/07/15 06:07:21;;;;;;;37.80;35.08;;;;;;;24.59;100.00;100877.22;6040443;23;20378;-81
2022/07/15 06:09:50;;;;;;;39.08;35.90;;;;;;;24.70;99.36;100874.34;6041118;23;20019;-80
2022/07/15 06:12:17;;;;;;;34.03;32.13;;;;;;;24.68;97.35;100877.34;6040117;23;20389;-80
2022/07/15 06:14:44;;;;;;;36.83;34.92;;;;;;;24.94;99.17;100882.38;6040546;23;20023;-79
2022/07/15 06:17:11;;;;;;;35.60;33.20;;;;;;;25.01;95.16;100877.34;6040457;23;20023;-80
2022/07/15 06:19:38;;;;;;;39.92;37.50;;;;;;;25.38;97.80;100878.31;6040526;23;20050;-80
2022/07/15 06:22:06;;;;;;;39.40;36.67;;;;;;;25.47;93.38;100871.06;6039638;23;20086;-80
2022/07/15 06:24:34;;;;;;;39.78;37.15;;;;;;;25.62;89.72;100880.84;6040722;23;20023;-80
2022/07/15 06:27:01;;;;;;;41.17;38.67;;;;;;;25.67;86.38;100872.59;6040669;23;20024;-79
2022/07/15 06:29:27;;;;;;;39.78;37.35;;;;;;;25.98;87.03;100862.69;6040716;23;20027;-79
2022/07/15 06:31:54;;;;;;;48.10;45.08;;;;;;;26.52;91.02;100865.56;6040618;23;20031;-79
2022/07/15 06:34:21;;;;;;;43.28;41.00;;;;;;;26.46;77.50;100858.59;6040394;23;20468;-80
2022/07/15 06:36:48;;;;;;;49.33;46.75;;;;;;;26.43;78.28;100859.22;6040719;23;20015;-80
2022/07/15 06:39:14;;;;;;;46.50;43.78;;;;;;;26.55;75.24;100864.16;6040241;23;20034;-80
2022/07/15 06:41:43;;;;;;;47.75;45.15;;;;;;;26.84;71.09;100863.66;6040202;23;20437;-79
2022/07/15 06:44:09;;;;;;;43.97;41.38;;;;;;;27.04;69.08;100854.19;6040470;23;20330;-79
2022/07/15 06:46:36;;;;;;;42.17;39.85;;;;;;;27.18;71.11;100863.09;6040249;23;20023;-85
2022/07/15 06:49:03;;;;;;;41.17;38.83;;;;;;;27.25;68.76;100862.63;6040033;23;20031;-80
2022/07/15 06:51:30;;;;;;;46.55;44.25;;;;;;;27.43;68.54;100860.78;6040515;23;20330;-80
2022/07/15 06:53:57;;;;;;;45.28;43.00;;;;;;;27.48;67.76;100868.81;6040498;23;20027;-79
2022/07/15 06:56:24;;;;;;;42.10;39.65;;;;;;;27.63;67.21;100861.00;6039855;23;20394;-80
2022/07/15 06:58:52;;;;;;;45.25;42.75;;;;;;;27.56;66.31;100862.56;6040725;23;20107;-79
2022/07/15 07:01:19;;;;;;;47.15;44.53;;;;;;;27.72;65.37;100866.47;6040258;23;20020;-80
2022/07/15 07:03:45;;;;;;;42.05;39.38;;;;;;;27.99;64.37;100870.06;6039906;23;20094;-79
2022/07/15 07:06:12;;;;;;;43.58;41.08;;;;;;;27.72;63.77;100866.47;6039161;23;20453;-82
2022/07/15 07:08:39;;;;;;;44.42;40.47;;;;;;;27.18;66.73;100865.81;6040253;23;20046;-80
2022/07/15 07:11:06;;;;;;;44.72;42.40;;;;;;;27.77;64.39;100865.50;6040126;23;20031;-79
2022/07/15 07:13:33;;;;;;;44.35;41.72;;;;;;;27.50;64.95;100870.09;6039941;23;20023;-80
2022/07/15 07:16:01;;;;;;;46.42;43.45;;;;;;;27.80;63.39;100865.69;6040427;23;20035;-80
2022/07/15 07:18:29;;;;;;;41.58;38.90;;;;;;;28.16;60.52;100863.81;6040445;23;20023;-79
2022/07/15 07:20:56;;;;;;;37.13;34.47;;;;;;;28.22;61.07;100865.28;6039725;23;20038;-79
2022/07/15 07:23:26;;;;;;;44.55;42.35;;;;;;;27.69;62.51;100874.50;6039989;23;20033;-80
2022/07/15 07:25:53;;;;;;;40.40;38.20;;;;;;;28.33;53.78;100871.22;6040158;23;20027;-79
2022/07/15 07:28:20;;;;;;;42.47;39.95;;;;;;;27.81;59.35;100878.25;6040302;23;20029;-79
2022/07/15 07:30:49;;;;;;;44.33;40.58;;;;;;;26.90;62.02;100873.31;6039868;23;20337;-80
2022/07/15 07:33:17;;;;;;;68.38;63.90;;;;;;;27.60;58.30;100878.00;6040080;23;20023;-80
2022/07/15 07:35:44;;;;;;;50.50;46.25;;;;;;;27.50;61.35;100872.03;6039309;23;20059;-81
2022/07/15 07:38:12;;;;;;;49.10;46.20;;;;;;;27.49;59.12;100873.94;6039272;23;20023;-79
2022/07/15 07:40:39;;;;;;;49.03;46.30;;;;;;;28.09;56.31;100873.31;6039929;23;20023;-79
2022/07/15 07:43:05;;;;;;;54.67;52.08;;;;;;;27.80;56.91;100879.34;6038899;23;20019;-79
2022/07/15 07:45:32;;;;;;;50.78;48.40;;;;;;;27.13;63.29;100882.28;6040001;23;20415;-79
2022/07/15 07:48:00;;;;;;;46.97;44.58;;;;;;;27.31;63.41;100875.81;6040015;23;20099;-80
2022/07/15 07:50:29;;;;;;;49.35;46.85;;;;;;;27.51;60.49;100877.19;6039666;23;20027;-80
2022/07/15 07:52:56;;;;;;;44.22;41.83;;;;;;;27.94;58.91;100878.44;6037956;23;20023;-78
2022/07/15 07:55:23;;;;;;;38.40;35.70;;;;;;;28.56;52.71;100871.84;6039601;23;20102;-79
2022/07/15 07:57:51;;;;;;;42.58;39.97;;;;;;;27.91;56.77;100879.06;6039246;23;20032;-79
2022/07/15 08:00:19;;;;;;;42.10;39.58;;;;;;;28.23;54.91;100875.88;6039356;23;20024;-80
2022/07/15 08:02:47;;;;;;;41.35;38.75;;;;;;;27.58;60.58;100868.53;6039400;23;20031;-79
2022/07/15 08:05:15;;;;;;;33.63;31.33;;;;;;;28.07;59.24;100874.72;6040067;23;20058;-79
2022/07/15 08:07:44;;;;;;;37.22;35.22;;;;;;;28.08;59.02;100870.91;6039648;23;20463;-79
2022/07/15 08:10:12;;;;;;;42.25;38.97;;;;;;;28.47;56.92;100858.22;6040681;23;20407;-81
2022/07/15 08:12:40;;;;;;;40.28;38.17;;;;;;;28.30;57.44;100868.00;6040241;23;20030;-79
2022/07/15 08:15:10;;;;;;;39.47;37.17;;;;;;;27.94;59.00;100862.84;6040525;23;20023;-78
2022/07/15 08:17:37;;;;;;;31.33;28.25;;;;;;;29.09;53.11;100859.72;6039844;23;20425;-79
2022/07/15 08:20:05;;;;;;;29.65;27.95;;;;;;;29.29;49.95;100860.91;6039688;23;20027;-79
2022/07/15 08:22:32;;;;;;;30.70;28.70;;;;;;;28.41;55.89;100863.03;6039578;23;20027;-77
2022/07/15 08:25:01;;;;;;;32.38;30.17;;;;;;;28.97;53.58;100858.44;6040243;23;20020;-80
2022/07/15 08:27:30;;;;;;;31.73;29.73;;;;;;;28.48;54.34;100862.56;6039879;23;20015;-79
2022/07/15 08:29:57;;;;;;;32.90;30.23;;;;;;;28.87;53.52;100855.25;6039299;23;20027;-79
2022/07/15 08:32:25;;;;;;;30.80;29.10;;;;;;;27.71;58.30;100853.94;6040500;23;20102;-78
2022/07/15 08:34:52;;;;;;;29.73;28.13;;;;;;;28.47;54.05;100850.84;6039781;23;20028;-80
2022/07/15 08:37:19;;;;;;;31.65;29.73;;;;;;;28.69;55.48;100862.69;6039312;23;20030;-79
2022/07/15 08:39:46;;;;;;;30.42;28.35;;;;;;;29.27;51.39;100855.78;6039965;23;20023;-79
2022/07/15 08:42:14;;;;;;;32.22;30.23;;;;;;;29.43;48.90;100859.53;6039103;23;20449;-79
2022/07/15 08:44:43;;;;;;;29.15;27.15;;;;;;;28.85;53.86;100857.50;6038948;23;20437;-80
2022/07/15 08:47:11;;;;;;;29.02;27.33;;;;;;;29.32;52.69;100868.44;6039483;23;20369;-79
2022/07/15 08:49:40;;;;;;;30.10;28.10;;;;;;;29.37;51.11;100863.59;6039280;23;20082;-80
2022/07/15 08:52:08;;;;;;;42.50;31.70;;;;;;;28.94;50.10;100859.09;6039210;23;20106;-80
2022/07/15 08:54:35;;;;;;;31.52;29.08;;;;;;;28.80;50.69;100849.47;6039462;23;20031;-80
2022/07/15 08:57:02;;;;;;;31.23;28.95;;;;;;;29.02;52.47;100851.19;6038770;23;20027;-81
2022/07/15 08:59:32;;;;;;;29.48;27.50;;;;;;;29.37;49.67;100851.84;6039030;23;20059;-79
2022/07/15 09:01:59;;;;;;;30.40;27.65;;;;;;;29.08;48.54;100849.88;6039426;23;20030;-79
2022/07/15 09:04:26;;;;;;;31.20;29.25;;;;;;;29.36;48.89;100853.81;6041173;23;20020;-79
2022/07/15 09:06:53;;;;;;;30.83;28.55;;;;;;;29.69;44.85;100855.91;6041059;23;20058;-80
2022/07/15 09:09:29;;;;;;;31.75;29.75;;;;;;;30.15;47.33;100847.84;6041557;23;20314;-80
2022/07/15 09:11:57;;;;;;;30.67;28.67;;;;;;;30.34;45.48;100848.16;6040979;23;20106;-80
2022/07/15 09:14:28;;;;;;;31.50;29.60;;;;;;;28.86;50.78;100838.03;6040992;23;20449;-80
2022/07/15 09:17:20;;;;;;;31.17;29.00;;;;;;;29.22;46.45;100845.81;6041313;23;20030;-77
2022/07/15 09:20:01;;;;;;;31.05;28.92;;;;;;;30.46;47.18;100834.50;6040920;23;20445;-79
2022/07/15 09:22:30;;;;;;;30.98;28.98;;;;;;;28.76;52.19;100830.19;6041270;23;20077;-80
2022/07/15 09:25:09;;;;;;;46.25;29.70;;;;;;;30.15;47.22;100832.19;6040725;23;20023;-80
2022/07/15 09:27:38;;;;;;;35.15;31.15;;;;;;;30.50;45.85;100823.69;6040646;23;20019;-82
2022/07/15 09:36:04;;;;;;;35.45;32.65;;;;;;;29.28;47.92;100826.50;6041421;23;20038;-79
2022/07/15 09:38:41;;;;;;;34.63;32.00;;;;;;;30.66;44.45;100815.63;6041437;23;20340;-80
2022/07/15 09:41:09;;;;;;;34.83;32.15;;;;;;;30.26;45.90;100814.25;6040244;23;20027;-80
2022/07/15 09:43:49;;;;;;;34.58;31.73;;;;;;;30.25;44.27;100817.31;6039913;23;20023;-79
2022/07/15 09:46:17;;;;;;;34.97;32.90;;;;;;;30.33;41.10;100808.22;6041082;23;20098;-78
2022/07/15 09:48:47;;;;;;;34.80;32.65;;;;;;;30.02;47.47;100801.22;6040174;23;20015;-79
2022/07/15 09:51:15;;;;;;;35.10;32.78;;;;;;;30.57;45.60;100808.28;6040211;23;20029;-79
2022/07/15 09:53:43;;;;;;;35.70;33.30;;;;;;;30.59;41.36;100796.97;6041010;23;20034;-79
2022/07/15 09:56:12;;;;;;;32.20;30.10;;;;;;;31.10;43.52;100796.72;6040256;23;20030;-79
2022/07/15 09:58:41;;;;;;;31.73;29.65;;;;;;;28.76;50.73;100791.94;6040620;23;20145;-79
2022/07/15 10:01:09;;;;;;;32.17;29.90;;;;;;;30.09;45.97;100782.31;6040079;23;20040;-81
2022/07/15 10:03:38;;;;;;;32.50;30.45;;;;;;;29.13;48.46;100786.81;6040201;23;20023;-80
2022/07/15 10:06:07;;;;;;;32.83;30.63;;;;;;;31.38;41.73;100778.47;6040644;23;20023;-81
2022/07/15 10:08:35;;;;;;;33.90;31.80;;;;;;;31.79;38.68;100784.75;6040885;23;20027;-79
2022/07/15 10:11:11;;;;;;;32.97;30.88;;;;;;;30.85;39.02;100779.47;6040028;23;20536;-80
2022/07/15 10:13:55;;;;;;;31.15;29.17;;;;;;;31.65;36.76;100781.59;6040599;23;20103;-80
2022/07/15 10:17:00;;;;;;;33.30;31.10;;;;;;;31.70;40.56;100770.38;6039946;23;20095;-79
2022/07/15 10:19:36;;;;;;;45.08;42.45;;;;;;;31.92;42.10;100769.88;6040194;23;20111;-78
2022/07/15 10:22:16;;;;;;;42.13;39.63;;;;;;;32.59;39.08;100763.84;6040462;23;20027;-79
2022/07/15 10:25:09;;;;;;;45.25;42.65;;;;;;;32.85;34.96;100755.03;6040630;23;20023;-78
2022/07/15 10:27:50;;;;;;;42.53;40.40;;;;;;;31.84;38.36;100751.56;6040568;23;20027;-79
2022/07/15 10:30:21;;;;;;;40.40;38.20;;;;;;;31.07;42.04;100748.03;6039696;23;20030;-79
2022/07/15 10:33:13;;;;;;;41.72;39.33;;;;;;;32.24;32.96;100749.94;6040408;23;20030;-77
2022/07/15 10:35:43;;;;;;;43.15;40.80;;;;;;;33.09;31.81;100737.56;6040454;23;20027;-78
2022/07/15 10:38:31;;;;;;;38.65;36.50;;;;;;;33.63;30.54;100736.78;6040484;23;20117;-79
2022/07/15 10:41:00;;;;;;;46.95;44.30;;;;;;;30.40;42.19;100741.91;6040395;23;20019;-80
2022/07/15 10:43:42;;;;;;;47.28;44.67;;;;;;;30.77;42.50;100731.78;6040502;23;20094;-79
2022/07/15 10:46:21;;;;;;;53.83;51.03;;;;;;;31.10;41.45;100730.91;6039929;23;20023;-80
2022/07/15 10:48:50;;;;;;;50.05;47.38;;;;;;;32.44;35.96;100734.34;6039645;23;20441;-79
2022/07/15 10:51:45;;;;;;;44.50;42.20;;;;;;;31.16;39.31;100738.56;6040023;23;20027;-80
2022/07/15 10:54:43;;;;;;;43.25;40.85;;;;;;;32.34;38.14;100738.41;6039796;23;20453;-77
2022/07/15 10:57:11;;;;;;;48.30;45.58;;;;;;;30.46;43.18;100735.09;6039683;23;20102;-77
2022/07/15 10:59:41;;;;;;;40.47;38.25;;;;;;;33.09;34.56;100725.75;6039698;23;20394;-79
2022/07/15 11:02:20;;;;;;;40.28;37.78;;;;;;;33.58;31.87;100739.81;6038686;23;20098;-80
2022/07/15 11:04:49;;;;;;;37.50;34.90;;;;;;;33.36;32.76;100722.03;6038879;23;20023;-79
2022/07/15 11:07:30;;;;;;;37.10;34.80;;;;;;;33.13;32.47;100729.38;6039760;23;20098;-80
2022/07/15 11:10:14;;;;;;;34.03;31.40;;;;;;;33.71;31.72;100727.50;6039148;23;20019;-79
2022/07/15 11:13:02;;;;;;;37.30;35.00;;;;;;;32.97;33.22;100724.66;6038183;23;20369;-77
2022/07/15 11:15:29;;;;;;;37.38;35.08;;;;;;;32.91;33.24;100728.84;6039938;23;20030;-79
2022/07/15 11:17:57;;;;;;;38.35;35.95;;;;;;;34.38;31.25;100724.44;6039698;23;20098;-78
2022/07/15 11:20:28;;;;;;;38.70;36.20;;;;;;;32.36;36.74;100714.94;6040003;23;20027;-78
2022/07/15 11:22:58;;;;;;;38.13;35.97;;;;;;;32.89;33.80;100709.16;6039606;23;20019;-79
2022/07/15 11:25:28;;;;;;;36.53;34.22;;;;;;;33.97;31.92;100702.03;6039149;23;20033;-78